Whitehorse, Canada
Current Conditions -  °F | °C
As of 9:00 PM on Thursday 30 Oct 2014 (Local Time) from CYXY Reporting Station
Overcast Overcast  
Wind Chill: 22°   Ceiling: 300
Heat Index: 32°   Visibility: 15mi
Dew Point: 30°   Wind: 14mph
Humidity: 93%   Direction: 180°S
Pressure: 29.25"   Gusts: NA
Location:  60.72°N, 135.05°W
Report Text: CYXY 310400Z 18012KT 15SM BKN003 BKN011 OVC100 M00/M01 A2925 RMK ST5SC1AC2 SLP939
Loading
Personal Weather Stations






























Interactive Weather Map
Tropical Storm Tracking
New forecast layout! Learn more

10-Day Weather Forecast

Advertisements
Track Severe Weather on mobile